Stations météo

réclame
Mon MeteoGroup
Lecce, Italie (16333): Température de l'air & dewpoint: 12.10.2017 11:00:00 - 18.10.2017 11:00:00 (CEST)Lecce, Italie (16333): Vitesse du vent: 12.10.2017 11:00:00 - 18.10.2017 11:00:00 (CEST)Lecce, Italie (16333): Direction du vent: 12.10.2017 11:00:00 - 18.10.2017 11:00:00 (CEST)Lecce, Italie (16333): reduced air pressure: 12.10.2017 11:00:00 - 18.10.2017 11:00:00 (CEST)Lecce, Italie (16333): Quantités de précipitations: 12.10.2017 11:00:00 - 18.10.2017 11:00:00 (CEST)
Date & Time tt [°C] td [°C] ff [km/h] ff [knt] dd ppp [hPa] rr [mm]
18.10.2017 11:00:00 - - - - - - -
18.10.2017 10:00:00 16,1 15,7 2 1 WNW 1020,5 -
18.10.2017 09:00:00 15,0 14,5 2 1 E 1020,5 -
18.10.2017 08:00:00 14,7 14,2 2 1 NNE 1020,3 0,0
18.10.2017 07:00:00 14,3 13,8 0 0 N 1020,2 -
18.10.2017 06:00:00 13,6 12,9 0 0 N 1020,5 -
18.10.2017 05:00:00 13,3 12,7 0 0 N 1020,6 -
18.10.2017 04:00:00 13,6 12,9 0 0 N 1020,8 -
18.10.2017 03:00:00 13,6 12,8 2 1 E 1021,3 -
18.10.2017 02:00:00 13,1 12,1 0 0 N 1021,7 0,0
18.10.2017 01:00:00 15,0 14,0 2 1 WNW 1021,8 -
18.10.2017 00:00:00 16,3 15,4 2 1 WNW 1022,0 -
17.10.2017 23:00:00 17,5 16,8 2 1 N 1022,1 -
17.10.2017 22:00:00 17,6 16,9 2 1 N 1022,3 -
17.10.2017 21:00:00 16,2 15,2 4 2 WSW 1022,4 -
17.10.2017 20:00:00 18,1 17,1 4 2 NNE 1022,4 0,0
17.10.2017 19:00:00 19,0 17,6 4 2 NNE 1022,4 -
17.10.2017 18:00:00 20,9 18,6 13 7 N 1022,4 -
17.10.2017 17:00:00 23,0 17,4 15 8 NNE 1022,5 -
17.10.2017 16:00:00 23,9 17,8 - - - 1022,7 -
17.10.2017 15:00:00 24,3 18,4 - - - 1023,1 -
17.10.2017 14:00:00 24,0 18,1 11 6 NE 1023,8 0,0
17.10.2017 13:00:00 23,8 18,8 15 8 N 1024,6 -
17.10.2017 12:00:00 22,4 19,5 11 6 N 1025,3 -
17.10.2017 11:00:00 20,7 19,8 - - - 1025,4 -
17.10.2017 10:00:00 18,6 18,2 13 7 NNE 1025,5 -
17.10.2017 09:00:00 15,3 14,8 5 3 N 1025,4 -
17.10.2017 08:00:00 12,5 11,9 0 0 N 1025,3 -
17.10.2017 07:00:00 12,5 11,9 0 0 N 1025,1 -
17.10.2017 06:00:00 12,7 12,2 0 0 N 1025,2 -
17.10.2017 05:00:00 14,4 13,9 0 0 N 1025,1 -
17.10.2017 04:00:00 16,0 15,5 9 5 NNW 1025,2 -
17.10.2017 03:00:00 16,0 15,5 11 6 NW 1025,6 -
17.10.2017 02:00:00 15,8 15,3 2 1 WNW 1026,1 0,0
17.10.2017 01:00:00 14,3 13,6 0 0 N 1026,2 -
17.10.2017 00:00:00 13,1 12,3 0 0 N 1026,3 -
16.10.2017 23:00:00 12,9 11,9 0 0 N 1026,4 -
16.10.2017 22:00:00 16,0 15,1 4 2 NNW 1026,3 -
16.10.2017 21:00:00 16,8 15,9 4 2 NW 1026,3 -
16.10.2017 20:00:00 18,3 17,3 11 6 N 1026,2 -
16.10.2017 19:00:00 19,0 17,6 9 5 NNE 1026,1 -
16.10.2017 18:00:00 20,6 18,5 13 7 NNE 1025,8 -
16.10.2017 17:00:00 21,7 18,4 22 12 NNE 1025,7 -
16.10.2017 16:00:00 22,5 18,8 18 10 NNE 1025,9 -
16.10.2017 15:00:00 22,6 18,3 22 12 NNE 1026,0 -
16.10.2017 14:00:00 22,9 18,8 22 12 NW 1026,1 -
16.10.2017 13:00:00 22,4 18,3 22 12 N 1026,6 -
16.10.2017 12:00:00 21,6 19,1 22 12 N 1026,9 -
16.10.2017 11:00:00 20,1 19,7 26 14 N 1027,0 -
16.10.2017 10:00:00 17,3 16,9 13 7 NNW 1026,9 -
16.10.2017 09:00:00 14,5 14,0 0 0 N 1026,7 -
16.10.2017 08:00:00 11,9 11,3 0 0 N 1026,1 -
16.10.2017 07:00:00 11,7 11,1 0 0 N 1026,0 -
16.10.2017 06:00:00 11,9 11,3 0 0 N 1025,8 -
16.10.2017 05:00:00 11,6 11,0 0 0 N 1025,5 -
16.10.2017 04:00:00 11,6 11,0 0 0 N 1025,7 -
16.10.2017 03:00:00 11,7 10,9 0 0 N 1026,2 -
16.10.2017 02:00:00 12,0 11,2 2 1 NNW 1026,3 0,0
16.10.2017 01:00:00 13,9 13,1 9 5 NW 1026,2 -
16.10.2017 00:00:00 14,8 13,9 4 2 NNW 1026,5 -
15.10.2017 23:00:00 15,6 14,7 2 1 WNW 1026,6 -
15.10.2017 22:00:00 16,1 15,2 4 2 NW 1026,4 -
15.10.2017 21:00:00 17,1 16,1 4 2 NW 1026,4 -
15.10.2017 20:00:00 17,9 16,5 9 5 N 1026,1 0,0
15.10.2017 19:00:00 18,8 16,2 5 3 NNE 1025,8 -
15.10.2017 18:00:00 20,8 17,0 18 10 NNW 1025,3 -
15.10.2017 17:00:00 22,1 17,4 26 14 NNE 1025,4 -
15.10.2017 16:00:00 22,8 16,5 24 13 NW 1025,5 -
15.10.2017 15:00:00 23,2 16,7 26 14 NNW 1025,6 -
15.10.2017 14:00:00 23,2 16,7 34 18 N 1026,1 0,0
15.10.2017 13:00:00 22,7 17,1 31 17 NNW 1026,6 -
15.10.2017 12:00:00 22,5 18,0 35 19 N 1026,8 -
15.10.2017 11:00:00 21,4 18,7 41 22 N 1026,5 -
15.10.2017 10:00:00 20,0 18,8 35 19 N 1026,4 -
15.10.2017 09:00:00 18,0 17,3 24 13 NNW 1026,1 -
15.10.2017 08:00:00 16,9 16,2 18 10 NW 1025,7 -
15.10.2017 07:00:00 16,8 16,1 18 10 NNW 1025,5 -
15.10.2017 06:00:00 17,1 16,4 21 11 NNW 1025,4 -
15.10.2017 05:00:00 17,4 16,7 28 15 NNW 1025,1 -
15.10.2017 04:00:00 17,2 16,5 31 17 NNW 1025,0 -
15.10.2017 03:00:00 17,4 16,7 26 14 NNW 1025,0 -
15.10.2017 02:00:00 17,7 17,0 31 17 NNW 1025,1 0,0
15.10.2017 01:00:00 17,6 16,9 26 14 NNW 1024,9 -
15.10.2017 00:00:00 17,4 16,7 22 12 NW 1025,0 -
14.10.2017 23:00:00 17,5 16,8 26 14 NNW 1025,1 -
14.10.2017 22:00:00 17,6 16,7 21 11 NW 1025,1 -
14.10.2017 21:00:00 17,8 16,8 18 10 NNW 1025,1 -
14.10.2017 20:00:00 18,4 17,2 21 11 NNW 1024,8 0,0
14.10.2017 19:00:00 19,0 17,4 29 16 NW 1024,6 -
14.10.2017 18:00:00 20,3 17,1 29 16 NNW 1024,2 -
14.10.2017 17:00:00 21,8 15,8 35 19 NNW 1024,0 -
14.10.2017 16:00:00 22,1 17,2 39 21 N 1024,1 -
14.10.2017 15:00:00 22,5 17,8 39 21 N 1024,2 -
14.10.2017 14:00:00 22,8 17,4 37 20 N 1024,2 0,0
14.10.2017 13:00:00 22,5 18,2 41 22 N 1024,7 -
14.10.2017 12:00:00 22,5 17,8 37 20 N 1024,8 -
14.10.2017 11:00:00 21,2 19,3 37 20 NNW 1024,7 -
14.10.2017 10:00:00 20,1 19,0 29 16 NNW 1024,6 -
14.10.2017 09:00:00 18,1 17,6 29 16 NNW 1024,3 -
14.10.2017 08:00:00 16,6 16,1 26 14 NW 1024,0 -
14.10.2017 07:00:00 15,8 15,3 22 12 NNW 1023,6 -
14.10.2017 06:00:00 13,4 12,8 0 0 N 1023,7 -
14.10.2017 05:00:00 13,0 12,2 4 2 NW 1023,6 -
14.10.2017 04:00:00 13,3 12,5 4 2 WNW 1023,6 -
14.10.2017 03:00:00 14,5 13,7 4 2 WNW 1023,8 -
14.10.2017 02:00:00 15,2 14,3 13 7 WNW 1023,9 0,0
14.10.2017 01:00:00 15,2 14,3 9 5 NW 1023,7 -
14.10.2017 00:00:00 16,2 15,3 9 5 NNW 1023,9 -
13.10.2017 23:00:00 16,3 15,4 11 6 N 1023,9 -
13.10.2017 22:00:00 16,7 15,8 9 5 NNW 1023,8 -
13.10.2017 21:00:00 17,3 16,3 16 9 NNW 1023,5 -
13.10.2017 20:00:00 18,0 16,8 21 11 NNW 1023,5 0,0
13.10.2017 19:00:00 18,8 17,1 22 12 NNW 1023,4 -
13.10.2017 18:00:00 20,3 16,5 35 19 N 1023,2 -
13.10.2017 17:00:00 21,8 16,5 41 22 NNW 1023,1 -
13.10.2017 16:00:00 22,4 17,0 39 21 N 1023,1 -
13.10.2017 15:00:00 22,9 16,4 35 19 N 1023,2 -
13.10.2017 14:00:00 22,9 15,6 37 20 N 1023,5 0,0
13.10.2017 13:00:00 22,8 17,2 34 18 N 1024,2 -
13.10.2017 12:00:00 22,0 17,7 39 21 N 1024,7 -
13.10.2017 11:00:00 21,1 19,0 37 20 NNW 1024,9 -
13.10.2017 10:00:00 19,4 19,0 24 13 NNW 1024,8 -
13.10.2017 09:00:00 16,6 16,1 15 8 NNW 1024,7 -
13.10.2017 08:00:00 12,6 12,0 8 4 NNW 1024,4 -
13.10.2017 07:00:00 9,8 9,0 0 0 N 1024,6 -
13.10.2017 06:00:00 9,7 8,8 0 0 N 1024,4 -
13.10.2017 05:00:00 10,6 9,7 2 1 NW 1024,3 -
13.10.2017 04:00:00 12,3 11,5 2 1 NW 1024,4 -
13.10.2017 03:00:00 12,4 11,6 4 2 NNW 1024,4 -
13.10.2017 02:00:00 12,7 11,9 5 3 NW 1024,5 0,0
13.10.2017 01:00:00 12,6 11,6 4 2 NW 1024,8 -
13.10.2017 00:00:00 12,4 11,3 2 1 WNW 1024,8 -
12.10.2017 23:00:00 13,0 11,9 0 0 N 1024,8 -
12.10.2017 22:00:00 14,2 12,9 0 0 N 1024,8 -
12.10.2017 21:00:00 15,0 13,1 2 1 N 1024,6 -
12.10.2017 20:00:00 17,3 15,4 2 1 N 1024,5 0,0
12.10.2017 19:00:00 18,7 15,5 8 4 N 1024,3 -
12.10.2017 18:00:00 20,5 14,8 11 6 NE 1023,9 -
12.10.2017 17:00:00 21,8 15,6 16 9 N 1023,7 -
12.10.2017 16:00:00 22,7 15,7 16 9 NNW 1023,7 -
12.10.2017 15:00:00 22,8 15,3 13 7 NW 1023,7 -
12.10.2017 14:00:00 22,4 15,2 9 5 NE 1024,0 0,0
12.10.2017 13:00:00 22,1 15,8 11 6 N 1024,4 -
12.10.2017 12:00:00 21,5 15,7 13 7 NNW 1024,7 -
12.10.2017 11:00:00 20,2 17,7 15 8 N 1024,9 -

tt = Température de l'air
td = dewpoint
ff = Vitesse du vent
dd = Direction du vent
ppp = reduced air pressure
rr = Quantités de précipitations

stations d'obs. à proximité